sensor_id;sensor_type;location;lat;lon;timestamp;pressure;altitude;pressure_sealevel;temperature;humidity
40872;BME280;26591;43.264;26.940;2023-04-25T00:00:35;98274.16;;;13.21;65.04
40872;BME280;26591;43.264;26.940;2023-04-25T00:03:00;98277.63;;;13.28;64.87
40872;BME280;26591;43.264;26.940;2023-04-25T00:05:26;98267.38;;;13.19;64.99
40872;BME280;26591;43.264;26.940;2023-04-25T00:07:52;98270.88;;;13.12;65.20
40872;BME280;26591;43.264;26.940;2023-04-25T00:10:19;98266.56;;;13.18;65.21
40872;BME280;26591;43.264;26.940;2023-04-25T00:12:45;98271.88;;;13.18;65.41
40872;BME280;26591;43.264;26.940;2023-04-25T00:15:11;98271.06;;;13.24;65.22
40872;BME280;26591;43.264;26.940;2023-04-25T00:17:37;98272.50;;;13.13;65.37
40872;BME280;26591;43.264;26.940;2023-04-25T00:20:04;98270.66;;;13.21;65.11
40872;BME280;26591;43.264;26.940;2023-04-25T00:22:30;98273.94;;;13.23;65.72
40872;BME280;26591;43.264;26.940;2023-04-25T00:24:56;98278.44;;;13.22;65.79
40872;BME280;26591;43.264;26.940;2023-04-25T00:27:25;98269.63;;;13.15;65.99
40872;BME280;26591;43.264;26.940;2023-04-25T00:29:51;98269.03;;;13.20;65.76
40872;BME280;26591;43.264;26.940;2023-04-25T00:32:16;98272.28;;;13.22;65.77
40872;BME280;26591;43.264;26.940;2023-04-25T00:34:42;98268.84;;;13.21;66.11
40872;BME280;26591;43.264;26.940;2023-04-25T00:37:07;98268.22;;;13.19;65.78
40872;BME280;26591;43.264;26.940;2023-04-25T00:39:33;98261.47;;;13.23;66.18
40872;BME280;26591;43.264;26.940;2023-04-25T00:41:58;98252.16;;;12.72;67.19
40872;BME280;26591;43.264;26.940;2023-04-25T00:44:24;98253.00;;;12.79;67.34
40872;BME280;26591;43.264;26.940;2023-04-25T00:46:50;98253.88;;;13.00;67.36
40872;BME280;26591;43.264;26.940;2023-04-25T00:49:16;98255.06;;;12.97;66.90
40872;BME280;26591;43.264;26.940;2023-04-25T00:51:43;98257.97;;;13.03;66.77
40872;BME280;26591;43.264;26.940;2023-04-25T00:54:11;98251.41;;;12.98;66.62
40872;BME280;26591;43.264;26.940;2023-04-25T00:56:37;98245.31;;;13.05;66.92
40872;BME280;26591;43.264;26.940;2023-04-25T00:59:03;98245.47;;;12.96;66.69
40872;BME280;26591;43.264;26.940;2023-04-25T01:01:29;98244.81;;;12.81;67.05
40872;BME280;26591;43.264;26.940;2023-04-25T01:03:55;98233.78;;;12.77;67.83
40872;BME280;26591;43.264;26.940;2023-04-25T01:06:23;98231.75;;;12.73;67.96
40872;BME280;26591;43.264;26.940;2023-04-25T01:08:48;98223.78;;;12.79;68.29
40872;BME280;26591;43.264;26.940;2023-04-25T01:11:14;98226.69;;;12.85;67.47
40872;BME280;26591;43.264;26.940;2023-04-25T01:13:39;98223.56;;;12.81;68.02
40872;BME280;26591;43.264;26.940;2023-04-25T01:16:05;98218.72;;;12.91;68.05
40872;BME280;26591;43.264;26.940;2023-04-25T01:18:31;98213.81;;;12.88;67.55
40872;BME280;26591;43.264;26.940;2023-04-25T01:21:02;98213.56;;;12.70;68.11
40872;BME280;26591;43.264;26.940;2023-04-25T01:23:27;98211.09;;;12.68;68.07
40872;BME280;26591;43.264;26.940;2023-04-25T01:25:54;98212.72;;;12.62;68.22
40872;BME280;26591;43.264;26.940;2023-04-25T01:28:20;98213.84;;;12.40;69.46
40872;BME280;26591;43.264;26.940;2023-04-25T01:30:47;98208.56;;;12.40;69.33
40872;BME280;26591;43.264;26.940;2023-04-25T01:33:14;98205.94;;;12.53;69.62
40872;BME280;26591;43.264;26.940;2023-04-25T01:35:40;98199.84;;;12.59;69.54
40872;BME280;26591;43.264;26.940;2023-04-25T01:38:06;98198.59;;;12.55;69.31
40872;BME280;26591;43.264;26.940;2023-04-25T01:40:33;98192.47;;;12.48;69.52
40872;BME280;26591;43.264;26.940;2023-04-25T01:42:59;98190.00;;;12.53;69.29
40872;BME280;26591;43.264;26.940;2023-04-25T01:45:25;98191.63;;;12.41;69.47
40872;BME280;26591;43.264;26.940;2023-04-25T01:47:50;98181.66;;;12.49;69.61
40872;BME280;26591;43.264;26.940;2023-04-25T01:50:18;98187.38;;;12.53;69.12
40872;BME280;26591;43.264;26.940;2023-04-25T01:52:44;98180.75;;;12.35;69.27
40872;BME280;26591;43.264;26.940;2023-04-25T01:55:09;98182.97;;;12.25;69.84
40872;BME280;26591;43.264;26.940;2023-04-25T01:57:35;98175.88;;;12.32;70.48
40872;BME280;26591;43.264;26.940;2023-04-25T02:00:04;98172.69;;;12.09;70.91
40872;BME280;26591;43.264;26.940;2023-04-25T02:02:32;98165.03;;;12.27;71.20
40872;BME280;26591;43.264;26.940;2023-04-25T02:04:57;98162.81;;;12.38;70.87
40872;BME280;26591;43.264;26.940;2023-04-25T02:07:22;98152.19;;;12.38;71.02
40872;BME280;26591;43.264;26.940;2023-04-25T02:09:50;98165.28;;;12.32;71.20
40872;BME280;26591;43.264;26.940;2023-04-25T02:12:24;98162.25;;;12.42;71.04
40872;BME280;26591;43.264;26.940;2023-04-25T02:14:51;98162.50;;;12.05;71.97
40872;BME280;26591;43.264;26.940;2023-04-25T02:17:17;98164.44;;;11.90;72.72
40872;BME280;26591;43.264;26.940;2023-04-25T02:19:44;98154.34;;;12.07;72.94
40872;BME280;26591;43.264;26.940;2023-04-25T02:22:10;98161.31;;;12.15;72.62
40872;BME280;26591;43.264;26.940;2023-04-25T02:24:36;98158.03;;;12.13;72.77
40872;BME280;26591;43.264;26.940;2023-04-25T02:27:01;98146.06;;;12.24;72.87
40872;BME280;26591;43.264;26.940;2023-04-25T02:29:29;98138.81;;;12.04;73.17
40872;BME280;26591;43.264;26.940;2023-04-25T02:31:55;98124.38;;;12.13;72.64
40872;BME280;26591;43.264;26.940;2023-04-25T02:34:20;98133.19;;;12.20;73.59
40872;BME280;26591;43.264;26.940;2023-04-25T02:36:46;98124.56;;;12.05;73.45
40872;BME280;26591;43.264;26.940;2023-04-25T02:39:11;98138.06;;;12.17;73.06
40872;BME280;26591;43.264;26.940;2023-04-25T02:41:37;98127.63;;;12.09;73.53
40872;BME280;26591;43.264;26.940;2023-04-25T02:44:02;98129.31;;;12.23;73.07
40872;BME280;26591;43.264;26.940;2023-04-25T02:46:28;98124.84;;;11.88;73.47
40872;BME280;26591;43.264;26.940;2023-04-25T02:48:53;98128.28;;;11.75;74.16
40872;BME280;26591;43.264;26.940;2023-04-25T02:51:19;98123.03;;;11.89;74.21
40872;BME280;26591;43.264;26.940;2023-04-25T02:53:44;98119.25;;;12.05;74.10
40872;BME280;26591;43.264;26.940;2023-04-25T02:56:10;98127.63;;;12.09;73.63
40872;BME280;26591;43.264;26.940;2023-04-25T02:58:35;98123.31;;;12.01;73.19
40872;BME280;26591;43.264;26.940;2023-04-25T03:01:01;98117.91;;;11.87;73.42
40872;BME280;26591;43.264;26.940;2023-04-25T03:03:27;98115.50;;;11.93;73.94
40872;BME280;26591;43.264;26.940;2023-04-25T03:05:52;98114.34;;;12.02;73.71
40872;BME280;26591;43.264;26.940;2023-04-25T03:08:18;98111.72;;;12.09;73.40
40872;BME280;26591;43.264;26.940;2023-04-25T03:10:44;98112.16;;;12.12;73.14
40872;BME280;26591;43.264;26.940;2023-04-25T03:13:10;98111.69;;;12.02;73.37
40872;BME280;26591;43.264;26.940;2023-04-25T03:15:37;98121.31;;;12.10;72.84
40872;BME280;26591;43.264;26.940;2023-04-25T03:18:03;98115.41;;;12.21;72.85
40872;BME280;26591;43.264;26.940;2023-04-25T03:20:29;98111.31;;;12.12;72.79
40872;BME280;26591;43.264;26.940;2023-04-25T03:22:56;98113.31;;;12.03;73.29
40872;BME280;26591;43.264;26.940;2023-04-25T03:25:21;98113.72;;;12.06;73.84
40872;BME280;26591;43.264;26.940;2023-04-25T03:27:47;98109.06;;;12.15;73.42
40872;BME280;26591;43.264;26.940;2023-04-25T03:30:13;98101.09;;;12.09;73.63
40872;BME280;26591;43.264;26.940;2023-04-25T03:32:39;98115.00;;;12.17;73.52
40872;BME280;26591;43.264;26.940;2023-04-25T03:35:05;98116.31;;;12.48;73.65
40872;BME280;26591;43.264;26.940;2023-04-25T03:37:31;98104.72;;;12.83;73.37
40872;BME280;26591;43.264;26.940;2023-04-25T03:40:00;98108.81;;;13.12;73.84
40872;BME280;26591;43.264;26.940;2023-04-25T03:42:26;98110.03;;;13.43;73.17
40872;BME280;26591;43.264;26.940;2023-04-25T03:44:52;98105.09;;;13.61;71.27
40872;BME280;26591;43.264;26.940;2023-04-25T03:47:18;98118.09;;;13.82;71.56
40872;BME280;26591;43.264;26.940;2023-04-25T03:49:43;98116.84;;;14.37;70.00
40872;BME280;26591;43.264;26.940;2023-04-25T03:52:09;98118.19;;;14.53;67.92
40872;BME280;26591;43.264;26.940;2023-04-25T03:54:35;98111.31;;;15.03;66.73
40872;BME280;26591;43.264;26.940;2023-04-25T03:57:00;98118.28;;;15.48;64.76
40872;BME280;26591;43.264;26.940;2023-04-25T03:59:27;98112.28;;;15.71;63.48
40872;BME280;26591;43.264;26.940;2023-04-25T04:01:52;98114.75;;;15.91;61.85
40872;BME280;26591;43.264;26.940;2023-04-25T04:04:18;98107.41;;;16.05;62.66
40872;BME280;26591;43.264;26.940;2023-04-25T04:06:44;98107.91;;;16.75;60.45
40872;BME280;26591;43.264;26.940;2023-04-25T04:09:09;98107.41;;;17.20;58.62
40872;BME280;26591;43.264;26.940;2023-04-25T04:11:37;98107.16;;;17.69;56.81
40872;BME280;26591;43.264;26.940;2023-04-25T04:14:05;98105.84;;;17.84;56.95
40872;BME280;26591;43.264;26.940;2023-04-25T04:16:30;98115.91;;;18.47;55.14
40872;BME280;26591;43.264;26.940;2023-04-25T04:18:56;98108.47;;;18.37;54.14
40872;BME280;26591;43.264;26.940;2023-04-25T04:21:22;98100.00;;;18.28;53.63
40872;BME280;26591;43.264;26.940;2023-04-25T04:23:47;98112.81;;;17.85;54.23
40872;BME280;26591;43.264;26.940;2023-04-25T04:26:13;98109.72;;;17.52;55.52
40872;BME280;26591;43.264;26.940;2023-04-25T04:28:42;98105.75;;;16.96;56.26
40872;BME280;26591;43.264;26.940;2023-04-25T04:31:09;98098.13;;;16.69;56.95
40872;BME280;26591;43.264;26.940;2023-04-25T04:33:35;98093.78;;;16.44;57.95
40872;BME280;26591;43.264;26.940;2023-04-25T04:36:02;98096.84;;;15.98;58.69
40872;BME280;26591;43.264;26.940;2023-04-25T04:38:29;98095.28;;;15.91;60.09
40872;BME280;26591;43.264;26.940;2023-04-25T04:40:54;98090.97;;;15.71;60.46
40872;BME280;26591;43.264;26.940;2023-04-25T04:43:21;98091.03;;;15.64;61.26
40872;BME280;26591;43.264;26.940;2023-04-25T04:45:48;98089.38;;;15.45;61.29
40872;BME280;26591;43.264;26.940;2023-04-25T04:48:14;98082.44;;;15.44;61.72
40872;BME280;26591;43.264;26.940;2023-04-25T04:50:39;98084.31;;;14.99;62.81
40872;BME280;26591;43.264;26.940;2023-04-25T04:53:05;98078.69;;;14.82;63.83
40872;BME280;26591;43.264;26.940;2023-04-25T04:55:31;98087.31;;;14.77;63.88
40872;BME280;26591;43.264;26.940;2023-04-25T04:57:56;98087.16;;;14.72;64.67
40872;BME280;26591;43.264;26.940;2023-04-25T05:00:22;98081.66;;;14.67;65.25
40872;BME280;26591;43.264;26.940;2023-04-25T05:02:48;98085.13;;;14.68;65.11
40872;BME280;26591;43.264;26.940;2023-04-25T05:05:13;98092.00;;;14.82;64.70
40872;BME280;26591;43.264;26.940;2023-04-25T05:07:39;98091.06;;;14.70;64.96
40872;BME280;26591;43.264;26.940;2023-04-25T05:10:08;98093.91;;;14.75;64.75
40872;BME280;26591;43.264;26.940;2023-04-25T05:12:33;98095.09;;;14.79;64.24
40872;BME280;26591;43.264;26.940;2023-04-25T05:15:01;98084.44;;;14.47;65.66
40872;BME280;26591;43.264;26.940;2023-04-25T05:17:27;98079.53;;;14.44;65.72
40872;BME280;26591;43.264;26.940;2023-04-25T05:19:55;98081.69;;;14.28;65.82
40872;BME280;26591;43.264;26.940;2023-04-25T05:22:22;98085.19;;;14.22;66.93
40872;BME280;26591;43.264;26.940;2023-04-25T05:24:50;98086.06;;;14.16;66.55
40872;BME280;26591;43.264;26.940;2023-04-25T05:27:17;98094.34;;;14.65;67.67
40872;BME280;26591;43.264;26.940;2023-04-25T05:29:43;98093.22;;;15.30;65.76
40872;BME280;26591;43.264;26.940;2023-04-25T05:32:08;98096.25;;;15.96;63.35
40872;BME280;26591;43.264;26.940;2023-04-25T05:34:34;98090.13;;;16.69;61.99
40872;BME280;26591;43.264;26.940;2023-04-25T05:37:00;98082.75;;;17.42;58.81
40872;BME280;26591;43.264;26.940;2023-04-25T05:39:26;98079.94;;;18.13;56.88
40872;BME280;26591;43.264;26.940;2023-04-25T05:41:52;98081.88;;;18.47;54.52
40872;BME280;26591;43.264;26.940;2023-04-25T05:44:17;98085.34;;;19.11;54.18
40872;BME280;26591;43.264;26.940;2023-04-25T05:46:43;98078.28;;;19.83;52.18
40872;BME280;26591;43.264;26.940;2023-04-25T05:49:09;98073.88;;;20.21;52.31
40872;BME280;26591;43.264;26.940;2023-04-25T05:51:34;98063.38;;;20.47;47.93
40872;BME280;26591;43.264;26.940;2023-04-25T05:54:00;98062.88;;;20.23;48.83
40872;BME280;26591;43.264;26.940;2023-04-25T05:56:25;98057.91;;;20.64;48.82
40872;BME280;26591;43.264;26.940;2023-04-25T05:58:51;98062.03;;;20.45;46.97
40872;BME280;26591;43.264;26.940;2023-04-25T06:01:16;98056.78;;;20.60;48.71
40872;BME280;26591;43.264;26.940;2023-04-25T06:03:42;98067.44;;;21.15;46.48
40872;BME280;26591;43.264;26.940;2023-04-25T06:06:08;98063.34;;;21.55;45.57
40872;BME280;26591;43.264;26.940;2023-04-25T06:08:35;98058.25;;;20.73;45.52
40872;BME280;26591;43.264;26.940;2023-04-25T06:11:00;98057.41;;;21.05;45.70
40872;BME280;26591;43.264;26.940;2023-04-25T06:13:26;98058.31;;;20.78;46.20
40872;BME280;26591;43.264;26.940;2023-04-25T06:15:51;98055.00;;;19.27;48.46
40872;BME280;26591;43.264;26.940;2023-04-25T06:18:17;98047.66;;;18.66;50.73
40872;BME280;26591;43.264;26.940;2023-04-25T06:20:42;98054.91;;;18.54;51.41
40872;BME280;26591;43.264;26.940;2023-04-25T06:23:08;98063.47;;;18.85;50.74
40872;BME280;26591;43.264;26.940;2023-04-25T06:25:33;98056.00;;;18.24;52.38
40872;BME280;26591;43.264;26.940;2023-04-25T06:27:59;98058.81;;;17.23;54.19
40872;BME280;26591;43.264;26.940;2023-04-25T06:30:25;98046.94;;;17.43;54.35
40872;BME280;26591;43.264;26.940;2023-04-25T06:32:51;98050.69;;;16.52;56.65
40872;BME280;26591;43.264;26.940;2023-04-25T06:35:18;98048.78;;;16.83;56.23
40872;BME280;26591;43.264;26.940;2023-04-25T06:37:44;98048.22;;;17.17;55.06
40872;BME280;26591;43.264;26.940;2023-04-25T06:40:10;98053.66;;;16.74;56.26
40872;BME280;26591;43.264;26.940;2023-04-25T06:42:36;98053.63;;;16.62;57.22
40872;BME280;26591;43.264;26.940;2023-04-25T06:45:02;98049.25;;;16.68;57.13
40872;BME280;26591;43.264;26.940;2023-04-25T06:47:27;98059.41;;;16.47;58.06
40872;BME280;26591;43.264;26.940;2023-04-25T06:49:53;98052.78;;;16.50;58.59
40872;BME280;26591;43.264;26.940;2023-04-25T06:52:18;98046.88;;;16.60;58.40
40872;BME280;26591;43.264;26.940;2023-04-25T06:54:44;98043.25;;;17.20;56.89
40872;BME280;26591;43.264;26.940;2023-04-25T06:57:10;98047.72;;;17.44;56.88
40872;BME280;26591;43.264;26.940;2023-04-25T06:59:35;98043.56;;;18.01;54.88
40872;BME280;26591;43.264;26.940;2023-04-25T07:02:01;98037.84;;;17.56;55.27
40872;BME280;26591;43.264;26.940;2023-04-25T07:04:27;98035.38;;;17.66;56.16
40872;BME280;26591;43.264;26.940;2023-04-25T07:06:52;98035.41;;;17.95;54.83
40872;BME280;26591;43.264;26.940;2023-04-25T07:09:18;98028.47;;;16.94;56.29
40872;BME280;26591;43.264;26.940;2023-04-25T07:11:44;98032.31;;;17.10;58.12
40872;BME280;26591;43.264;26.940;2023-04-25T07:14:10;98036.16;;;17.79;55.70
40872;BME280;26591;43.264;26.940;2023-04-25T07:16:37;98028.91;;;18.20;54.35
40872;BME280;26591;43.264;26.940;2023-04-25T07:19:02;98033.81;;;18.40;53.11
40872;BME280;26591;43.264;26.940;2023-04-25T07:21:28;98039.41;;;18.39;52.96
40872;BME280;26591;43.264;26.940;2023-04-25T07:23:53;98032.34;;;18.33;53.15
40872;BME280;26591;43.264;26.940;2023-04-25T07:26:19;98031.56;;;18.66;52.56
40872;BME280;26591;43.264;26.940;2023-04-25T07:28:45;98041.50;;;18.37;52.07
40872;BME280;26591;43.264;26.940;2023-04-25T07:31:26;98037.41;;;18.63;52.09
40872;BME280;26591;43.264;26.940;2023-04-25T07:33:52;98038.22;;;18.47;53.23
40872;BME280;26591;43.264;26.940;2023-04-25T07:36:17;98032.28;;;18.61;52.62
40872;BME280;26591;43.264;26.940;2023-04-25T07:38:43;98024.78;;;19.15;51.54
40872;BME280;26591;43.264;26.940;2023-04-25T07:41:08;98028.94;;;19.45;50.42
40872;BME280;26591;43.264;26.940;2023-04-25T07:43:34;98021.44;;;20.13;49.26
40872;BME280;26591;43.264;26.940;2023-04-25T07:45:59;98026.19;;;19.00;51.57
40872;BME280;26591;43.264;26.940;2023-04-25T07:48:25;98026.06;;;19.29;50.57
40872;BME280;26591;43.264;26.940;2023-04-25T07:50:50;98012.47;;;19.58;51.17
40872;BME280;26591;43.264;26.940;2023-04-25T07:53:16;98015.00;;;18.86;51.73
40872;BME280;26591;43.264;26.940;2023-04-25T07:55:43;98012.47;;;19.58;50.56
40872;BME280;26591;43.264;26.940;2023-04-25T07:58:09;98015.84;;;19.93;50.58
40872;BME280;26591;43.264;26.940;2023-04-25T08:00:35;98006.88;;;19.38;52.06
40872;BME280;26591;43.264;26.940;2023-04-25T08:03:01;98007.47;;;19.45;50.84
40872;BME280;26591;43.264;26.940;2023-04-25T08:05:28;98005.47;;;19.35;50.22
40872;BME280;26591;43.264;26.940;2023-04-25T08:07:53;98008.88;;;19.08;51.05
40872;BME280;26591;43.264;26.940;2023-04-25T08:10:19;98012.25;;;19.20;50.93
40872;BME280;26591;43.264;26.940;2023-04-25T08:12:44;98005.13;;;19.26;50.79
40872;BME280;26591;43.264;26.940;2023-04-25T08:15:10;98002.56;;;19.36;50.37
40872;BME280;26591;43.264;26.940;2023-04-25T08:17:35;98011.94;;;19.17;50.82
40872;BME280;26591;43.264;26.940;2023-04-25T08:20:01;98018.53;;;19.26;49.95
40872;BME280;26591;43.264;26.940;2023-04-25T08:22:30;98018.00;;;19.29;50.48
40872;BME280;26591;43.264;26.940;2023-04-25T08:24:56;98018.66;;;19.36;50.50
40872;BME280;26591;43.264;26.940;2023-04-25T08:27:24;98028.25;;;19.32;50.40
40872;BME280;26591;43.264;26.940;2023-04-25T08:29:50;98026.75;;;19.86;49.88
40872;BME280;26591;43.264;26.940;2023-04-25T08:32:16;98020.47;;;20.25;49.58
40872;BME280;26591;43.264;26.940;2023-04-25T08:34:42;98013.78;;;20.60;49.13
40872;BME280;26591;43.264;26.940;2023-04-25T08:37:10;98017.53;;;20.26;48.56
40872;BME280;26591;43.264;26.940;2023-04-25T08:39:38;98016.56;;;20.38;48.80
40872;BME280;26591;43.264;26.940;2023-04-25T08:42:06;98021.91;;;21.03;48.99
40872;BME280;26591;43.264;26.940;2023-04-25T08:44:35;98029.59;;;21.90;46.82
40872;BME280;26591;43.264;26.940;2023-04-25T08:47:04;98025.41;;;22.62;45.00
40872;BME280;26591;43.264;26.940;2023-04-25T08:49:33;98024.06;;;22.54;46.02
40872;BME280;26591;43.264;26.940;2023-04-25T08:52:01;98017.84;;;22.59;43.62
40872;BME280;26591;43.264;26.940;2023-04-25T08:54:31;98013.81;;;22.61;45.00
40872;BME280;26591;43.264;26.940;2023-04-25T08:56:57;98007.91;;;22.44;45.85
40872;BME280;26591;43.264;26.940;2023-04-25T08:59:25;98005.16;;;22.28;44.17
40872;BME280;26591;43.264;26.940;2023-04-25T09:01:51;98007.06;;;22.38;43.30
40872;BME280;26591;43.264;26.940;2023-04-25T09:04:18;98016.78;;;22.85;42.70
40872;BME280;26591;43.264;26.940;2023-04-25T09:06:46;98020.75;;;23.35;42.00
40872;BME280;26591;43.264;26.940;2023-04-25T09:09:11;98021.72;;;23.65;42.30
40872;BME280;26591;43.264;26.940;2023-04-25T09:11:38;98019.66;;;23.91;41.34
40872;BME280;26591;43.264;26.940;2023-04-25T09:14:16;98017.03;;;23.86;41.58
40872;BME280;26591;43.264;26.940;2023-04-25T09:17:11;98012.06;;;23.48;41.01
40872;BME280;26591;43.264;26.940;2023-04-25T09:19:37;98020.75;;;23.09;39.20
40872;BME280;26591;43.264;26.940;2023-04-25T09:22:05;98012.13;;;23.12;40.00
40872;BME280;26591;43.264;26.940;2023-04-25T09:24:39;98009.19;;;22.98;40.47
40872;BME280;26591;43.264;26.940;2023-04-25T09:27:09;98007.06;;;22.79;41.27
40872;BME280;26591;43.264;26.940;2023-04-25T09:29:39;98007.91;;;22.64;41.66
40872;BME280;26591;43.264;26.940;2023-04-25T09:34:47;98004.88;;;22.92;41.72
40872;BME280;26591;43.264;26.940;2023-04-25T09:37:23;98007.81;;;23.11;41.40
40872;BME280;26591;43.264;26.940;2023-04-25T09:39:57;98001.06;;;23.24;40.24
40872;BME280;26591;43.264;26.940;2023-04-25T09:42:30;97992.72;;;23.20;39.86
40872;BME280;26591;43.264;26.940;2023-04-25T09:44:57;98000.59;;;22.75;41.17
40872;BME280;26591;43.264;26.940;2023-04-25T09:47:26;97994.41;;;22.54;41.71
40872;BME280;26591;43.264;26.940;2023-04-25T09:49:53;97999.25;;;22.57;41.36
40872;BME280;26591;43.264;26.940;2023-04-25T09:52:22;97995.47;;;22.53;40.88
40872;BME280;26591;43.264;26.940;2023-04-25T09:54:49;97991.16;;;22.31;41.05
40872;BME280;26591;43.264;26.940;2023-04-25T09:57:17;97992.16;;;21.94;41.89
40872;BME280;26591;43.264;26.940;2023-04-25T09:59:48;97987.28;;;21.80;42.70
40872;BME280;26591;43.264;26.940;2023-04-25T10:02:16;97987.91;;;22.14;42.03
40872;BME280;26591;43.264;26.940;2023-04-25T10:04:42;97988.19;;;22.33;42.79
40872;BME280;26591;43.264;26.940;2023-04-25T10:07:11;97985.50;;;22.43;42.36
40872;BME280;26591;43.264;26.940;2023-04-25T10:09:38;97978.97;;;22.13;42.25
40872;BME280;26591;43.264;26.940;2023-04-25T10:12:06;97982.53;;;22.19;42.93
40872;BME280;26591;43.264;26.940;2023-04-25T10:14:32;97975.22;;;22.09;42.61
40872;BME280;26591;43.264;26.940;2023-04-25T10:16:59;97974.59;;;21.66;42.72
40872;BME280;26591;43.264;26.940;2023-04-25T10:19:26;97968.31;;;21.44;43.00
40872;BME280;26591;43.264;26.940;2023-04-25T10:22:17;97983.56;;;21.97;43.04
40872;BME280;26591;43.264;26.940;2023-04-25T10:24:44;97966.59;;;22.17;42.95
40872;BME280;26591;43.264;26.940;2023-04-25T10:27:12;97970.94;;;22.39;41.91
40872;BME280;26591;43.264;26.940;2023-04-25T10:29:37;97966.09;;;22.36;42.18
40872;BME280;26591;43.264;26.940;2023-04-25T10:32:03;97956.59;;;21.87;42.53
40872;BME280;26591;43.264;26.940;2023-04-25T10:37:05;97960.25;;;21.49;45.44
40872;BME280;26591;43.264;26.940;2023-04-25T10:39:32;97954.94;;;21.60;44.35
40872;BME280;26591;43.264;26.940;2023-04-25T10:41:58;97957.16;;;21.89;43.71
40872;BME280;26591;43.264;26.940;2023-04-25T10:44:30;97956.38;;;22.61;41.71
40872;BME280;26591;43.264;26.940;2023-04-25T10:46:57;97948.72;;;23.25;40.96
40872;BME280;26591;43.264;26.940;2023-04-25T10:52:11;97948.50;;;23.00;42.29
40872;BME280;26591;43.264;26.940;2023-04-25T10:54:46;97949.28;;;23.11;43.53
40872;BME280;26591;43.264;26.940;2023-04-25T11:02:43;97941.78;;;22.72;44.15
40872;BME280;26591;43.264;26.940;2023-04-25T11:05:19;97932.66;;;22.21;44.52
40872;BME280;26591;43.264;26.940;2023-04-25T11:07:50;97931.31;;;21.88;45.05
40872;BME280;26591;43.264;26.940;2023-04-25T11:10:30;97934.78;;;21.99;45.13
40872;BME280;26591;43.264;26.940;2023-04-25T11:12:57;97927.22;;;21.85;45.15
40872;BME280;26591;43.264;26.940;2023-04-25T11:15:24;97934.88;;;21.30;45.57
40872;BME280;26591;43.264;26.940;2023-04-25T11:17:54;97918.69;;;21.19;46.65
40872;BME280;26591;43.264;26.940;2023-04-25T11:20:20;97919.88;;;21.44;45.66
40872;BME280;26591;43.264;26.940;2023-04-25T11:22:47;97920.47;;;21.62;46.53
40872;BME280;26591;43.264;26.940;2023-04-25T11:25:14;97922.94;;;21.89;45.11
40872;BME280;26591;43.264;26.940;2023-04-25T11:27:55;97919.38;;;20.89;46.91
40872;BME280;26591;43.264;26.940;2023-04-25T11:30:23;97918.47;;;20.73;47.45
40872;BME280;26591;43.264;26.940;2023-04-25T11:32:49;97923.25;;;21.14;46.43
40872;BME280;26591;43.264;26.940;2023-04-25T11:35:15;97919.31;;;20.79;46.56
40872;BME280;26591;43.264;26.940;2023-04-25T11:37:46;97914.16;;;21.30;46.39
40872;BME280;26591;43.264;26.940;2023-04-25T11:40:12;97909.19;;;21.60;45.73
40872;BME280;26591;43.264;26.940;2023-04-25T11:42:43;97904.66;;;21.97;44.96
40872;BME280;26591;43.264;26.940;2023-04-25T11:45:09;97910.84;;;22.28;44.34
40872;BME280;26591;43.264;26.940;2023-04-25T11:47:35;97898.72;;;22.25;44.69
40872;BME280;26591;43.264;26.940;2023-04-25T11:50:02;97896.81;;;22.10;45.00
40872;BME280;26591;43.264;26.940;2023-04-25T11:52:43;97884.44;;;21.84;44.56
40872;BME280;26591;43.264;26.940;2023-04-25T11:55:16;97886.44;;;21.35;45.36
40872;BME280;26591;43.264;26.940;2023-04-25T11:57:43;97887.00;;;21.32;45.98
40872;BME280;26591;43.264;26.940;2023-04-25T12:00:16;97894.16;;;21.11;46.08
40872;BME280;26591;43.264;26.940;2023-04-25T12:02:44;97890.09;;;20.98;46.27
40872;BME280;26591;43.264;26.940;2023-04-25T12:05:12;97879.78;;;20.79;47.20
40872;BME280;26591;43.264;26.940;2023-04-25T12:07:37;97876.63;;;20.93;46.73
40872;BME280;26591;43.264;26.940;2023-04-25T12:10:12;97879.56;;;20.43;48.08
40872;BME280;26591;43.264;26.940;2023-04-25T12:12:41;97867.53;;;20.13;48.19
40872;BME280;26591;43.264;26.940;2023-04-25T12:15:14;97868.22;;;19.98;48.73
40872;BME280;26591;43.264;26.940;2023-04-25T12:17:42;97870.28;;;20.23;47.91
40872;BME280;26591;43.264;26.940;2023-04-25T12:20:12;97857.47;;;19.98;48.25
40872;BME280;26591;43.264;26.940;2023-04-25T12:22:40;97864.56;;;19.82;49.10
40872;BME280;26591;43.264;26.940;2023-04-25T12:25:36;97858.72;;;20.23;48.19
40872;BME280;26591;43.264;26.940;2023-04-25T12:28:20;97861.69;;;20.21;48.40
40872;BME280;26591;43.264;26.940;2023-04-25T12:31:03;97873.97;;;19.85;48.93
40872;BME280;26591;43.264;26.940;2023-04-25T12:35:59;97876.53;;;19.96;49.47
40872;BME280;26591;43.264;26.940;2023-04-25T12:38:27;97886.78;;;20.00;49.86
40872;BME280;26591;43.264;26.940;2023-04-25T12:40:57;97918.34;;;20.20;49.70
40872;BME280;26591;43.264;26.940;2023-04-25T12:43:23;97926.88;;;19.12;50.29
40872;BME280;26591;43.264;26.940;2023-04-25T12:45:52;97929.44;;;18.28;54.22
40872;BME280;26591;43.264;26.940;2023-04-25T12:48:19;97947.44;;;18.16;56.64
40872;BME280;26591;43.264;26.940;2023-04-25T12:50:45;97939.66;;;17.16;61.48
40872;BME280;26591;43.264;26.940;2023-04-25T12:53:12;97968.38;;;16.61;62.37
40872;BME280;26591;43.264;26.940;2023-04-25T12:55:38;97969.03;;;16.32;65.11
40872;BME280;26591;43.264;26.940;2023-04-25T12:58:03;97983.94;;;15.98;66.71
40872;BME280;26591;43.264;26.940;2023-04-25T13:00:30;97988.75;;;15.03;68.74
40872;BME280;26591;43.264;26.940;2023-04-25T13:02:55;98001.28;;;14.52;71.09
40872;BME280;26591;43.264;26.940;2023-04-25T13:05:21;97996.38;;;14.16;72.53